Royal, Nebraska
Current Conditions -  °F | °C
As of 5:15 AM on Wednesday 26 Nov 2014 (Local Time) from KONL Reporting Station
Overcast Overcast  
Wind Chill: 14°   Ceiling: 800
Heat Index: 29°   Visibility: 7mi
Dew Point: 27°   Wind: 29mph
Humidity: 93%   Direction: 310°NW
Pressure: 30"   Gusts: 41mph
Location:  42.33°N, 98.13°W
Report Text: KONL 261115Z AUTO 31025G36KT 7SM OVC008 M02/M03 A3000 RMK AO2 T10171027
Loading
Personal Weather Stations






























Interactive Weather Map New forecast layout! Learn more

10-Day Weather Forecast

Advertisements
Track Severe Weather on mobile